createdAt,value
2017-12-22T00:00:52.804Z,6.37
2017-12-22T00:03:20.297Z,6.33
2017-12-22T00:05:47.801Z,6.38
2017-12-22T00:08:15.323Z,6.38
2017-12-22T00:10:42.843Z,6.41
2017-12-22T00:13:10.359Z,6.40
2017-12-22T00:15:46.661Z,6.41
2017-12-22T00:18:14.181Z,6.44
2017-12-22T00:20:41.761Z,6.39
2017-12-22T00:23:09.225Z,6.42
2017-12-22T00:25:36.732Z,6.39
2017-12-22T00:28:04.263Z,6.42
2017-12-22T00:30:31.776Z,6.42
2017-12-22T00:32:59.286Z,6.39
2017-12-22T00:35:26.795Z,6.38
2017-12-22T00:37:54.303Z,6.37
2017-12-22T00:40:21.823Z,6.42
2017-12-22T00:42:49.309Z,6.43
2017-12-22T00:45:16.800Z,6.45
2017-12-22T00:47:44.309Z,6.48
2017-12-22T00:50:11.804Z,6.49
2017-12-22T00:52:39.326Z,6.48
2017-12-22T00:55:06.931Z,6.48
2017-12-22T00:57:34.429Z,6.48
2017-12-22T01:00:01.917Z,6.50
2017-12-22T01:02:29.454Z,6.50
2017-12-22T01:04:56.971Z,6.52
2017-12-22T01:07:24.489Z,6.52
2017-12-22T01:09:52.035Z,6.54
2017-12-22T01:12:19.543Z,6.56
2017-12-22T01:14:47.836Z,6.57
2017-12-22T01:17:20.969Z,6.56
2017-12-22T01:19:48.468Z,6.53
2017-12-22T01:22:15.989Z,6.49
2017-12-22T01:24:43.512Z,6.53
2017-12-22T01:27:11.009Z,6.52
2017-12-22T01:29:38.566Z,6.52
2017-12-22T01:32:11.175Z,6.53
2017-12-22T01:34:38.712Z,6.57
2017-12-22T01:37:06.206Z,6.56
2017-12-22T01:39:33.728Z,6.52
2017-12-22T01:42:01.239Z,6.48
2017-12-22T01:44:28.734Z,6.51
2017-12-22T01:46:56.255Z,6.49
2017-12-22T01:49:23.761Z,6.51
2017-12-22T01:51:51.920Z,6.47
2017-12-22T01:54:19.431Z,6.45
2017-12-22T01:56:46.967Z,6.44
2017-12-22T01:59:14.480Z,6.38
2017-12-22T02:01:41.998Z,6.30
2017-12-22T02:04:09.499Z,6.33
2017-12-22T02:06:36.993Z,6.35
2017-12-22T02:09:04.519Z,6.35
2017-12-22T02:11:32.020Z,6.34
2017-12-22T02:13:59.535Z,6.37
2017-12-22T02:16:27.428Z,6.38
2017-12-22T02:18:54.929Z,6.38
2017-12-22T02:21:22.442Z,6.40
2017-12-22T02:23:49.941Z,6.41
2017-12-22T02:26:17.441Z,6.40
2017-12-22T02:28:44.963Z,6.38
2017-12-22T02:31:13.103Z,6.41
2017-12-22T02:33:40.597Z,6.43
2017-12-22T02:36:08.136Z,6.44
2017-12-22T02:38:35.641Z,6.42
2017-12-22T02:41:03.175Z,6.42
2017-12-22T02:43:30.690Z,6.42
2017-12-22T02:45:58.219Z,6.46
2017-12-22T02:48:25.744Z,6.42
2017-12-22T02:50:53.255Z,6.40
2017-12-22T02:53:20.778Z,6.38
2017-12-22T02:55:48.309Z,6.41
2017-12-22T02:58:15.843Z,6.39
2017-12-22T03:00:43.353Z,6.40
2017-12-22T03:03:10.846Z,6.39
2017-12-22T03:05:38.337Z,6.35
2017-12-22T03:08:05.836Z,6.29
2017-12-22T03:10:33.352Z,6.30
2017-12-22T03:13:00.852Z,6.22
2017-12-22T03:15:28.345Z,6.18
2017-12-22T03:17:56.584Z,6.16
2017-12-22T03:20:24.080Z,6.10
2017-12-22T03:22:51.574Z,6.07
2017-12-22T03:25:19.131Z,6.04
2017-12-22T03:27:46.691Z,6.01
2017-12-22T03:30:15.073Z,6.02
2017-12-22T03:32:47.853Z,6.01
2017-12-22T03:35:15.381Z,5.94
2017-12-22T03:37:43.683Z,5.98
2017-12-22T03:40:11.259Z,5.99
2017-12-22T03:42:38.773Z,6.05
2017-12-22T03:45:06.278Z,6.01
2017-12-22T03:47:33.800Z,6.05
2017-12-22T03:50:01.298Z,6.05
2017-12-22T03:52:28.800Z,6.08
2017-12-22T03:54:56.323Z,6.08
2017-12-22T03:57:23.833Z,6.09
2017-12-22T03:59:51.340Z,6.08
2017-12-22T04:02:18.851Z,6.08
2017-12-22T04:04:46.357Z,6.11
2017-12-22T04:07:13.849Z,6.11
2017-12-22T04:09:41.361Z,6.14
2017-12-22T04:12:08.879Z,6.15
2017-12-22T04:14:36.402Z,6.17
2017-12-22T04:17:03.919Z,6.17
2017-12-22T04:19:31.424Z,6.20
2017-12-22T04:21:58.941Z,6.21
2017-12-22T04:24:26.475Z,6.19
2017-12-22T04:26:53.995Z,6.19
2017-12-22T04:29:21.508Z,6.25
2017-12-22T04:31:49.030Z,6.24
2017-12-22T04:34:16.538Z,6.27
2017-12-22T04:36:44.031Z,6.27
2017-12-22T04:39:11.542Z,6.25
2017-12-22T04:41:39.037Z,6.29
2017-12-22T04:44:06.541Z,6.28
2017-12-22T04:46:34.040Z,6.30
2017-12-22T04:49:01.525Z,6.29
2017-12-22T04:51:29.027Z,6.24
2017-12-22T04:53:56.546Z,6.28
2017-12-22T04:56:24.033Z,6.31
2017-12-22T04:58:51.534Z,6.33
2017-12-22T05:01:19.062Z,6.32
2017-12-22T05:03:46.566Z,6.35
2017-12-22T05:06:14.686Z,6.33
2017-12-22T05:08:42.185Z,6.35
2017-12-22T05:11:09.672Z,6.32
2017-12-22T05:13:37.181Z,6.30
2017-12-22T05:16:04.711Z,6.29
2017-12-22T05:18:32.449Z,6.32
2017-12-22T05:21:00.011Z,6.34
2017-12-22T05:23:27.523Z,6.37
2017-12-22T05:25:55.926Z,6.39
2017-12-22T05:28:23.497Z,6.35
2017-12-22T05:30:51.015Z,6.40
2017-12-22T05:33:18.513Z,6.35
2017-12-22T05:35:46.029Z,6.33
2017-12-22T05:38:13.544Z,6.32
2017-12-22T05:40:41.059Z,6.28
2017-12-22T05:43:08.568Z,6.28
2017-12-22T05:45:36.533Z,6.28
2017-12-22T05:48:04.029Z,6.30
2017-12-22T05:50:31.533Z,6.30
2017-12-22T05:52:59.046Z,6.36
2017-12-22T05:55:26.556Z,6.32
2017-12-22T05:57:54.079Z,6.33
2017-12-22T06:00:21.827Z,6.31
2017-12-22T06:02:49.344Z,6.36
2017-12-22T06:05:16.885Z,6.31
2017-12-22T06:07:44.397Z,6.29
2017-12-22T06:10:11.903Z,6.20
2017-12-22T06:12:39.426Z,6.21
2017-12-22T06:15:06.933Z,6.13
2017-12-22T06:17:34.429Z,6.17
2017-12-22T06:20:01.938Z,6.10
2017-12-22T06:22:29.463Z,6.06
2017-12-22T06:24:57.006Z,6.17
2017-12-22T06:27:24.528Z,6.19
2017-12-22T06:29:52.055Z,6.17
2017-12-22T06:32:19.578Z,6.20
2017-12-22T06:34:47.084Z,6.06
2017-12-22T06:37:14.622Z,6.12
2017-12-22T06:39:42.174Z,6.08
2017-12-22T06:42:09.720Z,6.09
2017-12-22T06:44:37.230Z,6.06
2017-12-22T06:47:04.728Z,6.09
2017-12-22T06:49:32.240Z,6.12
2017-12-22T06:51:59.821Z,5.99
2017-12-22T06:54:27.313Z,6.03
2017-12-22T06:56:54.860Z,6.01
2017-12-22T06:59:22.353Z,5.94
2017-12-22T07:01:49.876Z,6.02
2017-12-22T07:04:17.400Z,6.02
2017-12-22T07:06:44.911Z,5.94
2017-12-22T07:09:12.454Z,5.94
2017-12-22T07:11:39.988Z,5.98
2017-12-22T07:14:07.491Z,6.01
2017-12-22T07:16:35.025Z,6.01
2017-12-22T07:19:02.539Z,6.01
2017-12-22T07:21:30.073Z,6.04
2017-12-22T07:23:57.612Z,6.06
2017-12-22T07:26:25.129Z,5.98
2017-12-22T07:28:52.644Z,6.01
2017-12-22T07:31:20.140Z,5.99
2017-12-22T07:33:47.657Z,5.97
2017-12-22T07:36:15.168Z,5.96
2017-12-22T07:38:42.680Z,5.94
2017-12-22T07:41:17.602Z,5.98
2017-12-22T07:43:45.127Z,6.02
2017-12-22T07:46:12.629Z,5.95
2017-12-22T07:48:40.119Z,5.97
2017-12-22T07:51:07.685Z,5.96
2017-12-22T07:53:35.184Z,5.96
2017-12-22T07:56:02.665Z,5.98
2017-12-22T07:58:30.165Z,5.96
2017-12-22T08:00:57.663Z,5.96
2017-12-22T08:03:25.160Z,6.03
2017-12-22T08:05:52.664Z,6.01
2017-12-22T08:08:20.152Z,6.04
2017-12-22T08:10:47.661Z,6.08
2017-12-22T08:13:15.177Z,6.04
2017-12-22T08:15:42.687Z,6.02
2017-12-22T08:18:10.185Z,6.10
2017-12-22T08:20:38.085Z,6.15
2017-12-22T08:23:05.828Z,6.14
2017-12-22T08:25:33.337Z,6.14
2017-12-22T08:28:02.001Z,6.22
2017-12-22T08:30:29.529Z,6.20
2017-12-22T08:32:57.020Z,6.21
2017-12-22T08:35:24.513Z,6.19
2017-12-22T08:37:52.021Z,6.23
2017-12-22T08:40:21.896Z,6.27
2017-12-22T08:42:49.945Z,6.19
2017-12-22T08:45:17.458Z,6.24
2017-12-22T08:47:45.411Z,6.25
2017-12-22T08:50:12.919Z,6.21
2017-12-22T08:52:40.428Z,6.24
2017-12-22T08:55:07.992Z,6.19
2017-12-22T08:57:35.461Z,6.23
2017-12-22T09:00:02.965Z,6.23
2017-12-22T09:02:30.471Z,6.26
2017-12-22T09:04:57.975Z,6.31
2017-12-22T09:07:25.491Z,6.35
2017-12-22T09:09:52.988Z,6.31
2017-12-22T09:12:20.506Z,6.35
2017-12-22T09:14:48.023Z,6.35
2017-12-22T09:17:15.540Z,6.30
2017-12-22T09:19:43.037Z,6.27
2017-12-22T09:22:10.595Z,6.35
2017-12-22T09:24:38.162Z,6.34
2017-12-22T09:27:05.708Z,6.39
2017-12-22T09:29:33.230Z,6.39
2017-12-22T09:32:00.739Z,6.31
2017-12-22T09:34:28.430Z,6.29
2017-12-22T09:36:55.952Z,6.26
2017-12-22T09:39:23.453Z,6.26
2017-12-22T09:41:50.962Z,6.26
2017-12-22T09:44:18.464Z,6.20
2017-12-22T09:46:45.970Z,6.29
2017-12-22T09:49:14.105Z,6.27
2017-12-22T09:51:42.392Z,6.25
2017-12-22T09:54:10.550Z,6.30
2017-12-22T09:56:38.063Z,6.37
2017-12-22T09:59:05.566Z,6.30
2017-12-22T10:01:33.068Z,6.36
2017-12-22T10:04:00.577Z,6.37
2017-12-22T10:06:28.868Z,6.39
2017-12-22T10:08:56.360Z,6.24
2017-12-22T10:11:23.856Z,6.23
2017-12-22T10:13:51.395Z,6.25
2017-12-22T10:16:18.932Z,6.25
2017-12-22T10:18:46.793Z,6.24
2017-12-22T10:21:14.314Z,6.33
2017-12-22T10:23:41.820Z,6.30
2017-12-22T10:26:09.324Z,6.29
2017-12-22T10:28:36.833Z,6.37
2017-12-22T10:31:05.225Z,6.39
2017-12-22T10:33:32.772Z,6.32
2017-12-22T10:36:00.273Z,6.36
2017-12-22T10:38:27.785Z,6.45
2017-12-22T10:40:55.295Z,6.44
2017-12-22T10:43:22.811Z,6.45
2017-12-22T10:45:51.299Z,6.48
2017-12-22T10:48:18.794Z,6.49
2017-12-22T10:50:46.319Z,6.52
2017-12-22T10:53:15.107Z,6.54
2017-12-22T10:55:42.634Z,6.58
2017-12-22T10:58:10.144Z,6.59
2017-12-22T11:00:37.692Z,6.62
2017-12-22T11:03:05.222Z,6.51
2017-12-22T11:05:33.159Z,6.51
2017-12-22T11:08:01.965Z,6.53
2017-12-22T11:10:29.556Z,6.48
2017-12-22T11:12:57.064Z,6.52
2017-12-22T11:15:24.589Z,6.50
2017-12-22T11:17:52.103Z,6.45
2017-12-22T11:20:19.614Z,6.37
2017-12-22T11:22:47.128Z,6.38
2017-12-22T11:25:14.637Z,6.40
2017-12-22T11:27:42.536Z,6.39
2017-12-22T11:30:10.028Z,6.42
2017-12-22T11:32:38.271Z,6.45
2017-12-22T11:35:05.778Z,6.28
2017-12-22T11:37:33.284Z,6.18
2017-12-22T11:40:00.794Z,6.28
2017-12-22T11:42:28.329Z,6.21
2017-12-22T11:44:55.862Z,6.22
2017-12-22T11:47:24.298Z,6.25
2017-12-22T11:49:51.809Z,6.20
2017-12-22T11:52:19.317Z,6.21
2017-12-22T11:54:46.931Z,6.21
2017-12-22T11:57:14.420Z,6.04
2017-12-22T11:59:42.145Z,6.11
2017-12-22T12:02:09.662Z,6.06
2017-12-22T12:04:37.683Z,6.08
2017-12-22T12:07:06.041Z,5.96
2017-12-22T12:09:33.537Z,5.95
2017-12-22T12:12:01.613Z,6.07
2017-12-22T12:17:21.632Z,6.11
2017-12-22T12:19:49.212Z,6.16
2017-12-22T12:22:16.738Z,6.03
2017-12-22T12:24:44.477Z,5.93
2017-12-22T12:27:11.969Z,6.07
2017-12-22T12:29:39.482Z,6.07
2017-12-22T12:32:06.956Z,5.91
2017-12-22T12:34:35.100Z,5.89
2017-12-22T12:37:02.609Z,5.91
2017-12-22T12:39:30.122Z,5.81
2017-12-22T12:41:57.923Z,5.84
2017-12-22T12:44:25.457Z,5.88
2017-12-22T12:46:53.007Z,5.84
2017-12-22T12:49:20.587Z,5.81
2017-12-22T12:51:48.078Z,5.86
2017-12-22T12:54:15.595Z,5.99
2017-12-22T12:56:43.749Z,5.97
2017-12-22T12:59:11.735Z,5.80
2017-12-22T13:01:39.730Z,5.89
2017-12-22T13:04:07.267Z,5.85
2017-12-22T13:06:34.800Z,5.78
2017-12-22T13:09:02.313Z,5.73
2017-12-22T13:11:32.772Z,5.78
2017-12-22T13:14:00.292Z,5.67
2017-12-22T13:16:27.804Z,5.81
2017-12-22T13:18:55.346Z,5.72
2017-12-22T13:21:22.846Z,5.82
2017-12-22T13:23:51.133Z,5.86
2017-12-22T13:26:20.783Z,5.92
2017-12-22T13:28:49.105Z,5.96
2017-12-22T13:31:16.643Z,5.96
2017-12-22T13:33:44.617Z,5.95
2017-12-22T13:36:12.198Z,5.88
2017-12-22T13:38:39.692Z,5.97
2017-12-22T13:41:07.797Z,5.88
2017-12-22T13:43:35.302Z,5.82
2017-12-22T13:46:02.829Z,5.83
2017-12-22T13:48:30.388Z,5.84
2017-12-22T13:50:58.164Z,5.86
2017-12-22T13:53:25.685Z,5.66
2017-12-22T13:55:53.805Z,5.71
2017-12-22T13:58:21.320Z,5.74
2017-12-22T14:00:48.910Z,5.83
2017-12-22T14:03:16.439Z,5.79
2017-12-22T14:05:44.337Z,5.77
2017-12-22T14:08:11.868Z,5.77
2017-12-22T14:10:40.378Z,5.83
2017-12-22T14:13:07.887Z,5.80
2017-12-22T14:15:35.405Z,5.74
2017-12-22T14:18:03.540Z,5.76
2017-12-22T14:20:31.036Z,5.74
2017-12-22T14:22:58.560Z,5.71
2017-12-22T14:25:26.567Z,5.65
2017-12-22T14:27:54.067Z,5.74
2017-12-22T14:30:25.703Z,5.80
2017-12-22T14:32:53.483Z,5.71
2017-12-22T14:35:20.984Z,5.74
2017-12-22T14:37:48.553Z,5.69
2017-12-22T14:40:17.115Z,5.72
2017-12-22T14:42:44.629Z,5.65
2017-12-22T14:45:12.155Z,5.67
2017-12-22T14:47:39.669Z,5.69
2017-12-22T14:50:07.179Z,5.74
2017-12-22T14:52:34.688Z,5.73
2017-12-22T14:55:02.203Z,5.75
2017-12-22T14:57:29.958Z,5.74
2017-12-22T14:59:57.482Z,5.64
2017-12-22T15:02:26.364Z,5.65
2017-12-22T15:04:53.860Z,5.59
2017-12-22T15:07:21.391Z,5.59
2017-12-22T15:09:48.888Z,5.59
2017-12-22T15:12:16.401Z,5.57
2017-12-22T15:14:43.928Z,5.51
2017-12-22T15:17:11.472Z,5.53
2017-12-22T15:19:38.981Z,5.52
2017-12-22T15:22:06.499Z,5.50
2017-12-22T15:24:33.997Z,5.50
2017-12-22T15:27:02.132Z,5.43
2017-12-22T15:29:29.629Z,5.47
2017-12-22T15:31:57.136Z,5.45
2017-12-22T15:34:24.657Z,5.41
2017-12-22T15:36:52.168Z,5.43
2017-12-22T15:39:19.676Z,5.47
2017-12-22T15:41:47.177Z,5.43
2017-12-22T15:44:14.811Z,5.37
2017-12-22T15:46:42.336Z,5.43
2017-12-22T15:49:10.636Z,5.41
2017-12-22T15:51:38.153Z,5.41
2017-12-22T15:54:06.113Z,5.42
2017-12-22T15:56:33.613Z,5.45
2017-12-22T15:59:01.728Z,5.44
2017-12-22T16:01:30.048Z,5.37
2017-12-22T16:03:59.351Z,5.43
2017-12-22T16:06:27.759Z,5.36
2017-12-22T16:08:55.249Z,5.40
2017-12-22T16:11:23.861Z,5.42
2017-12-22T16:13:51.404Z,5.40
2017-12-22T16:16:19.590Z,5.42
2017-12-22T16:21:45.507Z,5.44
2017-12-22T16:24:13.032Z,5.48
2017-12-22T16:26:40.548Z,5.43
2017-12-22T16:29:10.213Z,5.43
2017-12-22T16:31:38.457Z,5.44
2017-12-22T16:34:06.633Z,5.41
2017-12-22T16:36:34.158Z,5.43
2017-12-22T16:42:17.850Z,5.43
2017-12-22T16:44:45.365Z,5.46
2017-12-22T16:47:14.879Z,5.52
2017-12-22T16:49:42.377Z,5.41
2017-12-22T16:52:10.427Z,5.45
2017-12-22T16:54:37.970Z,5.46
2017-12-22T16:57:05.830Z,5.52
2017-12-22T16:59:33.385Z,5.49
2017-12-22T17:02:00.894Z,5.49
2017-12-22T17:04:28.424Z,5.54
2017-12-22T17:06:55.916Z,5.50
2017-12-22T17:09:23.577Z,5.53
2017-12-22T17:11:51.101Z,5.54
2017-12-22T17:14:18.599Z,5.50
2017-12-22T17:16:46.579Z,5.49
2017-12-22T17:19:14.091Z,5.55
2017-12-22T17:21:41.570Z,5.57
2017-12-22T17:24:09.164Z,5.56
2017-12-22T17:26:36.713Z,5.59
2017-12-22T17:29:04.200Z,5.53
2017-12-22T17:31:31.703Z,5.55
2017-12-22T17:33:59.866Z,5.60
2017-12-22T17:36:27.750Z,5.55
2017-12-22T17:38:55.312Z,5.59
2017-12-22T17:41:22.852Z,5.62
2017-12-22T17:43:50.374Z,5.64
2017-12-22T17:46:17.888Z,5.60
2017-12-22T17:48:46.619Z,5.62
2017-12-22T17:51:14.842Z,5.62
2017-12-22T17:53:42.361Z,5.69
2017-12-22T17:56:09.848Z,5.80
2017-12-22T17:58:37.467Z,5.93
2017-12-22T18:01:05.055Z,5.90
2017-12-22T18:03:32.588Z,5.83
2017-12-22T18:06:00.085Z,5.77
2017-12-22T18:08:27.750Z,5.72
2017-12-22T18:10:55.284Z,5.74
2017-12-22T18:13:22.898Z,5.74
2017-12-22T18:15:50.388Z,5.71
2017-12-22T18:18:17.885Z,5.71
2017-12-22T18:20:45.413Z,5.71
2017-12-22T18:23:12.885Z,5.72
2017-12-22T18:25:40.383Z,5.71
2017-12-22T18:28:08.100Z,5.67
2017-12-22T18:30:35.616Z,5.71
2017-12-22T18:33:03.237Z,5.70
2017-12-22T18:35:30.754Z,5.73
2017-12-22T18:37:58.239Z,5.75
2017-12-22T18:40:25.718Z,5.75
2017-12-22T18:42:53.195Z,5.74
2017-12-22T18:45:20.695Z,5.71
2017-12-22T18:47:48.184Z,5.70
2017-12-22T18:50:15.795Z,5.73
2017-12-22T18:52:43.320Z,5.75
2017-12-22T18:55:10.838Z,5.78
2017-12-22T18:57:38.330Z,5.78
2017-12-22T19:00:07.427Z,5.81
2017-12-22T19:02:34.958Z,5.79
2017-12-22T19:05:02.450Z,5.80
2017-12-22T19:07:31.615Z,5.77
2017-12-22T19:09:59.241Z,5.81
2017-12-22T19:12:26.762Z,5.83
2017-12-22T19:14:54.297Z,5.78
2017-12-22T19:17:21.801Z,5.80
2017-12-22T19:19:49.805Z,5.80
2017-12-22T19:22:17.386Z,5.80
2017-12-22T19:24:45.032Z,5.82
2017-12-22T19:27:12.555Z,5.79
2017-12-22T19:29:40.070Z,5.79
2017-12-22T19:32:07.582Z,5.85
2017-12-22T19:34:36.878Z,5.82
2017-12-22T19:37:04.380Z,5.85
2017-12-22T19:39:32.057Z,5.82
2017-12-22T19:41:59.604Z,5.83
2017-12-22T19:44:27.117Z,5.84
2017-12-22T19:46:54.584Z,5.82
2017-12-22T19:49:22.092Z,5.82
2017-12-22T19:51:49.588Z,5.84
2017-12-22T19:54:17.244Z,5.86
2017-12-22T19:56:45.230Z,5.88
2017-12-22T19:59:12.717Z,5.85
2017-12-22T20:01:40.195Z,5.84
2017-12-22T20:04:07.705Z,5.84
2017-12-22T20:06:35.219Z,5.81
2017-12-22T20:09:02.777Z,5.87
2017-12-22T20:11:30.281Z,5.86
2017-12-22T20:13:57.799Z,5.87
2017-12-22T20:16:25.284Z,5.87
2017-12-22T20:18:52.786Z,5.86
2017-12-22T20:21:20.302Z,5.87
2017-12-22T20:23:47.901Z,5.91
2017-12-22T20:26:15.360Z,5.87
2017-12-22T20:28:42.841Z,5.86
2017-12-22T20:31:10.330Z,5.90
2017-12-22T20:33:37.825Z,5.87
2017-12-22T20:36:05.348Z,5.89
2017-12-22T20:38:32.833Z,5.89
2017-12-22T20:41:00.324Z,5.93
2017-12-22T20:43:27.818Z,5.88
2017-12-22T20:45:55.303Z,5.83
2017-12-22T20:48:22.774Z,5.88
2017-12-22T20:50:50.308Z,5.88
2017-12-22T20:53:17.825Z,5.85
2017-12-22T20:55:45.330Z,5.80
2017-12-22T20:58:12.823Z,5.86
2017-12-22T21:00:40.301Z,5.80
2017-12-22T21:03:07.786Z,5.84
2017-12-22T21:05:35.254Z,5.88
2017-12-22T21:08:02.755Z,5.85
2017-12-22T21:10:30.253Z,5.88
2017-12-22T21:12:57.742Z,5.79
2017-12-22T21:15:25.218Z,5.79
2017-12-22T21:17:52.724Z,5.78
2017-12-22T21:20:20.211Z,5.81
2017-12-22T21:22:47.699Z,5.79
2017-12-22T21:25:15.206Z,5.81
2017-12-22T21:27:42.709Z,5.83
2017-12-22T21:30:10.229Z,5.83
2017-12-22T21:32:37.702Z,5.78
2017-12-22T21:35:06.065Z,5.78
2017-12-22T21:37:33.545Z,5.79
2017-12-22T21:40:04.261Z,5.75
2017-12-22T21:42:31.743Z,5.79
2017-12-22T21:44:59.282Z,5.73
2017-12-22T21:47:26.762Z,5.65
2017-12-22T21:49:54.261Z,5.58
2017-12-22T21:52:21.756Z,5.57
2017-12-22T21:54:49.257Z,5.52
2017-12-22T21:57:17.860Z,5.53
2017-12-22T21:59:45.379Z,5.51
2017-12-22T22:02:19.676Z,5.51
2017-12-22T22:04:47.158Z,5.50
2017-12-22T22:07:14.629Z,5.48
2017-12-22T22:09:42.112Z,5.52
2017-12-22T22:12:09.596Z,5.53
2017-12-22T22:14:37.684Z,5.46
2017-12-22T22:17:05.411Z,5.47
2017-12-22T22:19:32.928Z,5.44
2017-12-22T22:22:00.441Z,5.43
2017-12-22T22:24:27.929Z,5.43
2017-12-22T22:26:55.420Z,5.43
2017-12-22T22:29:22.893Z,5.41
2017-12-22T22:31:50.371Z,5.33
2017-12-22T22:34:17.899Z,5.35
2017-12-22T22:36:45.446Z,5.37
2017-12-22T22:39:13.897Z,5.36
2017-12-22T22:41:41.403Z,5.29
2017-12-22T22:44:08.901Z,5.31
2017-12-22T22:46:36.421Z,5.31
2017-12-22T22:49:03.922Z,5.26
2017-12-22T22:51:31.479Z,5.26
2017-12-22T22:53:59.013Z,5.27
2017-12-22T22:56:26.512Z,5.30
2017-12-22T22:58:54.034Z,5.29
2017-12-22T23:01:21.550Z,5.25
2017-12-22T23:03:49.037Z,5.25
2017-12-22T23:06:16.546Z,5.28
2017-12-22T23:08:44.036Z,5.23
2017-12-22T23:11:11.721Z,5.22
2017-12-22T23:13:39.481Z,5.23
2017-12-22T23:16:07.018Z,5.28
2017-12-22T23:18:34.542Z,5.24
2017-12-22T23:21:02.049Z,5.23
2017-12-22T23:23:29.537Z,5.22
2017-12-22T23:25:57.034Z,5.21
2017-12-22T23:28:24.517Z,5.20
2017-12-22T23:30:52.005Z,5.25
2017-12-22T23:33:19.524Z,5.26
2017-12-22T23:35:47.030Z,5.21
2017-12-22T23:38:15.032Z,5.19
2017-12-22T23:40:42.528Z,5.20
2017-12-22T23:43:10.960Z,5.18
2017-12-22T23:45:38.440Z,5.22
2017-12-22T23:48:05.940Z,5.20
2017-12-22T23:50:33.458Z,5.22
2017-12-22T23:53:00.938Z,5.25
2017-12-22T23:55:31.268Z,5.27
2017-12-22T23:57:58.767Z,5.31
